createdAt,value
2019-05-29T00:02:15.426Z,101188.52
2019-05-29T00:04:45.485Z,101192.89
2019-05-29T00:07:15.593Z,101190.70
2019-05-29T00:09:45.679Z,101197.23
2019-05-29T00:12:19.675Z,101199.41
2019-05-29T00:14:47.631Z,101202.94
2019-05-29T00:17:18.761Z,101203.80
2019-05-29T00:19:48.965Z,101209.46
2019-05-29T00:22:19.043Z,101210.78
2019-05-29T00:24:49.088Z,101214.27
2019-05-29T00:27:19.149Z,101216.91
2019-05-29T00:29:49.220Z,101211.66
2019-05-29T00:32:19.300Z,101211.20
2019-05-29T00:34:49.379Z,101219.50
2019-05-29T00:37:19.423Z,101219.95
2019-05-29T00:39:49.508Z,101217.70
2019-05-29T00:42:19.562Z,101225.49
2019-05-29T00:44:49.634Z,101224.17
2019-05-29T00:47:19.699Z,101229.45
2019-05-29T00:49:49.820Z,101233.34
2019-05-29T00:52:19.903Z,101238.50
2019-05-29T00:54:49.967Z,101237.56
2019-05-29T00:57:20.036Z,101244.05
2019-05-29T00:59:50.136Z,101241.66
2019-05-29T01:02:20.204Z,101253.50
2019-05-29T01:04:50.304Z,101248.70
2019-05-29T01:07:20.579Z,101251.33
2019-05-29T01:09:50.733Z,101260.47
2019-05-29T01:12:21.263Z,101260.01
2019-05-29T01:14:51.486Z,101262.59
2019-05-29T01:17:23.702Z,101266.09
2019-05-29T01:19:53.397Z,101270.36
2019-05-29T01:22:23.492Z,101266.81
2019-05-29T01:24:53.571Z,101262.48
2019-05-29T01:27:23.621Z,101261.58
2019-05-29T01:29:53.693Z,101260.34
2019-05-29T01:32:23.864Z,101264.25
2019-05-29T01:34:53.953Z,101263.41
2019-05-29T01:37:24.351Z,101268.14
2019-05-29T01:39:54.653Z,101270.29
2019-05-29T01:42:25.003Z,101269.47
2019-05-29T01:45:07.168Z,101270.68
2019-05-29T01:47:28.008Z,101274.13
2019-05-29T01:49:58.200Z,101278.50
2019-05-29T01:52:28.252Z,101277.25
2019-05-29T01:54:58.315Z,101288.48
2019-05-29T01:57:28.394Z,101287.63
2019-05-29T01:59:58.491Z,101285.84
2019-05-29T02:02:28.549Z,101289.80
2019-05-29T02:04:58.627Z,101282.78
2019-05-29T02:07:28.693Z,101285.74
2019-05-29T02:09:58.766Z,101289.31
2019-05-29T02:12:43.798Z,101292.38
2019-05-29T02:15:23.854Z,101300.53
2019-05-29T02:17:46.368Z,101299.64
2019-05-29T02:20:16.987Z,101301.39
2019-05-29T02:22:47.107Z,101301.31
2019-05-29T02:25:19.655Z,101307.37
2019-05-29T02:27:50.734Z,101304.75
2019-05-29T02:30:23.530Z,101306.55
2019-05-29T02:32:53.650Z,101310.02
2019-05-29T02:35:24.831Z,101315.32
2019-05-29T02:37:55.756Z,101321.52
2019-05-29T02:40:28.132Z,101325.41
2019-05-29T02:42:57.782Z,101324.17
2019-05-29T02:45:50.884Z,101332.02
2019-05-29T02:47:59.871Z,101337.34
2019-05-29T02:50:31.308Z,101340.92
2019-05-29T02:53:01.598Z,101347.88
2019-05-29T02:55:31.746Z,101350.45
2019-05-29T02:58:01.872Z,101346.09
2019-05-29T03:00:54.428Z,101350.42
2019-05-29T03:03:26.502Z,101351.18
2019-05-29T03:05:57.492Z,101353.83
2019-05-29T03:08:31.162Z,101363.47
2019-05-29T03:10:59.744Z,101362.57
2019-05-29T03:13:31.604Z,101367.94
2019-05-29T03:16:10.334Z,101372.69
2019-05-29T03:18:35.136Z,101374.41
2019-05-29T03:21:05.397Z,101374.86
2019-05-29T03:23:36.370Z,101379.64
2019-05-29T03:26:07.107Z,101380.88
2019-05-29T03:28:38.195Z,101379.13
2019-05-29T03:31:08.723Z,101386.11
2019-05-29T03:33:47.806Z,101393.17
2019-05-29T03:36:10.939Z,101390.14
2019-05-29T03:38:41.086Z,101400.64
2019-05-29T03:41:11.285Z,101394.96
2019-05-29T03:43:41.615Z,101397.50
2019-05-29T03:46:29.823Z,101402.36
2019-05-29T03:48:46.947Z,101394.92
2019-05-29T03:51:17.222Z,101402.77
2019-05-29T03:53:47.395Z,101406.25
2019-05-29T03:56:17.472Z,101408.14
2019-05-29T03:58:47.729Z,101412.03
2019-05-29T04:01:18.118Z,101408.86
2019-05-29T04:03:48.308Z,101414.20
2019-05-29T04:06:18.812Z,101413.34
2019-05-29T04:08:50.573Z,101421.23
2019-05-29T04:11:21.184Z,101425.63
2019-05-29T04:13:51.491Z,101419.57
2019-05-29T04:16:23.534Z,101428.31
2019-05-29T04:18:55.617Z,101432.72
2019-05-29T04:21:27.939Z,101432.69
2019-05-29T04:24:00.441Z,101435.38
2019-05-29T04:26:33.939Z,101448.52
2019-05-29T04:29:04.686Z,101451.14
2019-05-29T04:31:36.356Z,101464.31
2019-05-29T04:34:06.811Z,101460.89
2019-05-29T04:36:38.516Z,101461.84
2019-05-29T04:39:08.718Z,101465.84
2019-05-29T04:41:39.340Z,101471.13
2019-05-29T04:44:09.494Z,101473.77
2019-05-29T04:46:41.243Z,101478.16
2019-05-29T04:49:11.297Z,101489.94
2019-05-29T04:51:41.542Z,101491.68
2019-05-29T04:54:11.622Z,101503.95
2019-05-29T04:56:41.801Z,101502.63
2019-05-29T04:59:11.886Z,101500.50
2019-05-29T05:01:42.088Z,101510.99
2019-05-29T05:04:12.143Z,101517.20
2019-05-29T05:06:42.274Z,101514.88
2019-05-29T05:09:12.332Z,101520.27
2019-05-29T05:11:42.787Z,101531.19
2019-05-29T05:14:12.862Z,101532.37
2019-05-29T05:16:42.919Z,101538.23
2019-05-29T05:19:13.034Z,101536.84
2019-05-29T05:21:43.163Z,101543.70
2019-05-29T05:24:13.257Z,101552.97
2019-05-29T05:26:43.363Z,101551.25
2019-05-29T05:29:13.499Z,101558.41
2019-05-29T05:31:43.755Z,101557.36
2019-05-29T05:34:14.253Z,101557.53
2019-05-29T05:36:44.413Z,101562.73
2019-05-29T05:39:14.501Z,101563.33
2019-05-29T05:41:46.959Z,101569.55
2019-05-29T05:44:17.027Z,101577.95
2019-05-29T05:46:47.118Z,101583.57
2019-05-29T05:49:17.233Z,101585.56
2019-05-29T05:51:48.050Z,101584.19
2019-05-29T05:54:18.128Z,101588.61
2019-05-29T05:56:48.229Z,101592.42
2019-05-29T05:59:18.314Z,101600.52
2019-05-29T06:01:48.431Z,101602.34
2019-05-29T06:04:21.400Z,101604.02
2019-05-29T06:06:53.005Z,101609.36
2019-05-29T06:09:23.131Z,101610.73
2019-05-29T06:11:53.160Z,101609.16
2019-05-29T06:14:23.264Z,101608.33
2019-05-29T06:16:55.725Z,101619.97
2019-05-29T06:19:25.837Z,101616.13
2019-05-29T06:21:55.926Z,101618.38
2019-05-29T06:24:26.082Z,101622.50
2019-05-29T06:26:57.771Z,101626.96
2019-05-29T06:29:29.322Z,101633.66
2019-05-29T06:31:59.421Z,101633.66
2019-05-29T06:34:29.503Z,101638.61
2019-05-29T06:36:59.564Z,101636.91
2019-05-29T06:39:29.675Z,101633.98
2019-05-29T06:41:59.734Z,101641.12
2019-05-29T06:44:29.832Z,101631.42
2019-05-29T06:46:59.930Z,101636.03
2019-05-29T06:49:30.030Z,101640.39
2019-05-29T06:52:00.130Z,101644.56
2019-05-29T06:54:30.221Z,101643.53
2019-05-29T06:57:00.311Z,101646.20
2019-05-29T06:59:30.411Z,101653.83
2019-05-29T07:02:00.472Z,101657.39
2019-05-29T07:04:30.823Z,101663.52
2019-05-29T07:07:00.863Z,101654.22
2019-05-29T07:09:30.970Z,101654.16
2019-05-29T07:12:01.042Z,101657.02
2019-05-29T07:14:34.721Z,101660.92
2019-05-29T07:17:04.850Z,101656.73
2019-05-29T07:19:48.939Z,101659.98
2019-05-29T07:22:06.738Z,101671.95
2019-05-29T07:24:37.069Z,101670.55
2019-05-29T07:27:07.319Z,101674.05
2019-05-29T07:29:37.435Z,101671.88
2019-05-29T07:32:07.543Z,101678.28
2019-05-29T07:34:52.675Z,101681.84
2019-05-29T07:37:09.413Z,101691.40
2019-05-29T07:39:39.523Z,101686.72
2019-05-29T07:42:09.564Z,101691.13
2019-05-29T07:44:39.996Z,101694.48
2019-05-29T07:47:10.226Z,101700.23
2019-05-29T07:49:43.501Z,101700.05
2019-05-29T07:52:12.154Z,101706.25
2019-05-29T07:54:43.649Z,101711.25
2019-05-29T07:57:13.900Z,101706.50
2019-05-29T07:59:44.667Z,101708.89
2019-05-29T08:02:14.862Z,101710.56
2019-05-29T08:04:45.217Z,101699.49
2019-05-29T08:07:15.306Z,101703.53
2019-05-29T08:09:45.685Z,101704.39
2019-05-29T08:12:15.757Z,101709.84
2019-05-29T08:14:45.917Z,101705.28
2019-05-29T08:17:15.962Z,101713.52
2019-05-29T08:19:59.280Z,101710.31
2019-05-29T08:22:33.257Z,101713.24
2019-05-29T08:24:51.098Z,101723.64
2019-05-29T08:27:21.286Z,101719.95
2019-05-29T08:29:51.387Z,101723.16
2019-05-29T08:32:21.489Z,101722.02
2019-05-29T08:34:51.654Z,101727.02
2019-05-29T08:37:21.773Z,101733.55
2019-05-29T08:39:51.890Z,101737.58
2019-05-29T08:42:23.811Z,101737.30
2019-05-29T08:44:53.785Z,101739.58
2019-05-29T08:47:23.859Z,101740.84
2019-05-29T08:49:54.618Z,101741.91
2019-05-29T08:52:24.821Z,101743.11
2019-05-29T08:54:54.922Z,101744.53
2019-05-29T08:57:25.016Z,101752.54
2019-05-29T08:59:55.099Z,101753.46
2019-05-29T09:02:25.204Z,101746.20
2019-05-29T09:04:55.285Z,101754.72
2019-05-29T09:07:25.370Z,101756.80
2019-05-29T09:09:55.462Z,101752.78
2019-05-29T09:12:25.546Z,101760.73
2019-05-29T09:14:55.683Z,101753.91
2019-05-29T09:17:25.920Z,101759.37
2019-05-29T09:19:55.995Z,101760.36
2019-05-29T09:22:26.148Z,101761.38
2019-05-29T09:24:56.214Z,101758.46
2019-05-29T09:27:26.650Z,101760.82
2019-05-29T09:29:56.757Z,101759.16
2019-05-29T09:32:48.324Z,101761.20
2019-05-29T09:34:58.654Z,101756.11
2019-05-29T09:37:28.759Z,101755.34
2019-05-29T09:39:58.820Z,101760.59
2019-05-29T09:42:28.919Z,101759.78
2019-05-29T09:44:58.991Z,101768.29
2019-05-29T09:47:29.105Z,101770.55
2019-05-29T09:49:59.202Z,101771.09
2019-05-29T09:52:30.798Z,101772.28
2019-05-29T09:55:02.493Z,101771.05
2019-05-29T09:57:32.787Z,101764.95
2019-05-29T10:00:04.185Z,101770.38
2019-05-29T10:02:34.494Z,101781.55
2019-05-29T10:05:05.074Z,101780.06
2019-05-29T10:07:35.171Z,101774.23
2019-05-29T10:10:06.125Z,101782.50
2019-05-29T10:12:36.243Z,101793.99
2019-05-29T10:15:07.358Z,101796.14
2019-05-29T10:17:37.538Z,101791.91
2019-05-29T10:20:08.391Z,101796.69
2019-05-29T10:22:38.474Z,101798.45
2019-05-29T10:25:09.085Z,101795.84
2019-05-29T10:27:39.173Z,101802.74
2019-05-29T10:30:10.412Z,101805.91
2019-05-29T10:32:42.450Z,101794.34
2019-05-29T10:35:13.215Z,101801.46
2019-05-29T10:37:44.475Z,101800.91
2019-05-29T10:40:15.180Z,101806.31
2019-05-29T10:42:45.311Z,101803.84
2019-05-29T10:45:16.005Z,101806.11
2019-05-29T10:47:47.307Z,101807.58
2019-05-29T10:50:17.760Z,101812.41
2019-05-29T10:52:47.960Z,101811.28
2019-05-29T10:55:21.384Z,101809.52
2019-05-29T10:57:52.919Z,101805.45
2019-05-29T11:00:23.493Z,101807.02
2019-05-29T11:02:55.861Z,101803.22
2019-05-29T11:05:25.372Z,101803.25
2019-05-29T11:07:55.949Z,101803.98
2019-05-29T11:10:26.196Z,101798.67
2019-05-29T11:12:56.800Z,101805.88
2019-05-29T11:15:27.138Z,101801.91
2019-05-29T11:17:57.446Z,101799.91
2019-05-29T11:20:27.991Z,101801.99
2019-05-29T11:22:58.091Z,101805.56
2019-05-29T11:25:28.592Z,101805.15
2019-05-29T11:27:58.831Z,101811.33
2019-05-29T11:30:29.098Z,101812.19
2019-05-29T11:33:01.462Z,101805.39
2019-05-29T11:35:31.082Z,101808.16
2019-05-29T11:38:01.186Z,101807.41
2019-05-29T11:40:31.567Z,101804.35
2019-05-29T11:43:03.113Z,101804.38
2019-05-29T11:45:35.599Z,101810.21
2019-05-29T11:48:05.572Z,101806.49
2019-05-29T11:50:35.716Z,101797.91
2019-05-29T11:53:06.096Z,101813.91
2019-05-29T11:55:36.148Z,101801.92
2019-05-29T11:58:06.404Z,101802.28
2019-05-29T12:00:36.489Z,101807.70
2019-05-29T12:03:07.525Z,101805.53
2019-05-29T12:05:37.589Z,101812.78
2019-05-29T12:08:07.866Z,101809.80
2019-05-29T12:10:38.057Z,101811.48
2019-05-29T12:13:08.166Z,101811.23
2019-05-29T12:15:38.275Z,101812.40
2019-05-29T12:18:22.719Z,101816.98
2019-05-29T12:20:40.272Z,101808.77
2019-05-29T12:23:24.850Z,101811.23
2019-05-29T12:25:42.207Z,101806.13
2019-05-29T12:28:12.305Z,101810.78
2019-05-29T12:30:42.418Z,101805.28
2019-05-29T12:33:12.537Z,101816.30
2019-05-29T12:35:42.625Z,101817.37
2019-05-29T12:38:12.768Z,101823.69
2019-05-29T12:40:42.895Z,101826.01
2019-05-29T12:43:26.462Z,101821.85
2019-05-29T12:45:44.829Z,101814.30
2019-05-29T12:48:16.099Z,101815.00
2019-05-29T12:50:46.666Z,101821.47
2019-05-29T12:53:29.528Z,101821.08
2019-05-29T12:55:48.656Z,101819.39
2019-05-29T12:58:18.725Z,101818.27
2019-05-29T13:00:48.939Z,101812.48
2019-05-29T13:03:19.062Z,101815.06
2019-05-29T13:05:49.139Z,101811.42
2019-05-29T13:08:19.248Z,101809.03
2019-05-29T13:10:50.823Z,101799.98
2019-05-29T13:13:20.894Z,101797.66
2019-05-29T13:15:51.213Z,101802.44
2019-05-29T13:18:21.408Z,101809.16
2019-05-29T13:20:51.523Z,101806.82
2019-05-29T13:23:21.620Z,101805.82
2019-05-29T13:25:51.767Z,101801.16
2019-05-29T13:28:21.870Z,101804.91
2019-05-29T13:30:51.994Z,101801.86
2019-05-29T13:33:22.136Z,101804.53
2019-05-29T13:35:52.402Z,101796.27
2019-05-29T13:38:22.499Z,101800.21
2019-05-29T13:40:52.658Z,101806.26
2019-05-29T13:43:22.774Z,101807.39
2019-05-29T13:45:52.909Z,101810.14
2019-05-29T13:48:23.553Z,101806.53
2019-05-29T13:50:53.685Z,101812.18
2019-05-29T13:53:24.610Z,101820.75
2019-05-29T13:55:57.739Z,101817.86
2019-05-29T13:58:27.935Z,101817.08
2019-05-29T14:00:58.227Z,101811.51
2019-05-29T14:03:28.278Z,101807.45
2019-05-29T14:05:58.743Z,101813.20
2019-05-29T14:08:28.767Z,101809.51
2019-05-29T14:10:59.199Z,101811.81
2019-05-29T14:13:29.366Z,101811.57
2019-05-29T14:16:00.568Z,101812.30
2019-05-29T14:18:30.763Z,101813.08
2019-05-29T14:21:00.977Z,101813.93
2019-05-29T14:23:31.022Z,101815.48
2019-05-29T14:26:02.217Z,101814.42
2019-05-29T14:28:32.473Z,101815.97
2019-05-29T14:31:03.767Z,101822.19
2019-05-29T14:33:33.910Z,101827.75
2019-05-29T14:36:05.843Z,101812.80
2019-05-29T14:38:36.173Z,101815.30
2019-05-29T14:41:06.272Z,101805.25
2019-05-29T14:43:37.535Z,101808.16
2019-05-29T14:46:08.092Z,101814.73
2019-05-29T14:48:38.557Z,101811.14
2019-05-29T14:51:08.705Z,101811.48
2019-05-29T14:53:38.793Z,101819.72
2019-05-29T14:56:08.923Z,101812.85
2019-05-29T14:58:39.020Z,101816.94
2019-05-29T15:01:09.225Z,101811.02
2019-05-29T15:03:39.295Z,101819.45
2019-05-29T15:06:09.735Z,101815.91
2019-05-29T15:08:39.784Z,101820.42
2019-05-29T15:11:10.093Z,101820.03
2019-05-29T15:13:40.250Z,101809.19
2019-05-29T15:16:10.873Z,101818.52
2019-05-29T15:18:41.100Z,101808.64
2019-05-29T15:21:11.219Z,101814.52
2019-05-29T15:23:41.355Z,101818.37
2019-05-29T15:26:11.735Z,101818.38
2019-05-29T15:28:41.875Z,101814.85
2019-05-29T15:31:12.417Z,101819.31
2019-05-29T15:33:42.594Z,101820.73
2019-05-29T15:36:13.178Z,101823.72
2019-05-29T15:38:43.363Z,101820.58
2019-05-29T15:41:14.773Z,101821.31
2019-05-29T15:43:45.013Z,101825.45
2019-05-29T15:46:16.426Z,101829.09
2019-05-29T15:48:46.948Z,101834.66
2019-05-29T15:51:17.179Z,101835.80
2019-05-29T15:53:47.395Z,101841.52
2019-05-29T15:56:27.165Z,101830.37
2019-05-29T15:58:49.345Z,101837.13
2019-05-29T16:01:19.455Z,101834.45
2019-05-29T16:03:49.511Z,101837.95
2019-05-29T16:06:19.648Z,101833.77
2019-05-29T16:08:49.775Z,101830.45
2019-05-29T16:11:19.908Z,101828.51
2019-05-29T16:13:50.001Z,101820.98
2019-05-29T16:16:20.106Z,101820.86
2019-05-29T16:18:50.197Z,101822.63
2019-05-29T16:21:20.286Z,101824.91
2019-05-29T16:23:50.362Z,101822.81
2019-05-29T16:26:21.452Z,101821.61
2019-05-29T16:28:51.555Z,101817.31
2019-05-29T16:31:22.922Z,101826.06
2019-05-29T16:33:53.440Z,101820.72
2019-05-29T16:36:23.516Z,101820.64
2019-05-29T16:38:53.888Z,101812.23
2019-05-29T16:41:23.972Z,101814.96
2019-05-29T16:43:54.117Z,101821.09
2019-05-29T16:46:24.766Z,101822.42
2019-05-29T16:48:54.961Z,101822.34
2019-05-29T16:51:25.079Z,101816.56
2019-05-29T16:53:56.520Z,101819.75
2019-05-29T16:56:26.595Z,101820.98
2019-05-29T16:58:58.761Z,101819.17
2019-05-29T17:01:28.856Z,101818.72
2019-05-29T17:03:59.044Z,101813.56
2019-05-29T17:06:52.511Z,101808.98
2019-05-29T17:09:22.613Z,101810.03
2019-05-29T17:11:52.699Z,101809.20
2019-05-29T17:14:22.940Z,101810.76
2019-05-29T17:16:53.237Z,101808.28
2019-05-29T17:19:23.430Z,101813.67
2019-05-29T17:21:53.553Z,101810.05
2019-05-29T17:24:24.963Z,101814.27
2019-05-29T17:27:07.406Z,101813.38
2019-05-29T17:29:28.914Z,101816.40
2019-05-29T17:31:59.016Z,101816.95
2019-05-29T17:34:29.117Z,101812.37
2019-05-29T17:36:59.284Z,101809.71
2019-05-29T17:39:29.401Z,101808.75
2019-05-29T17:41:59.515Z,101808.61
2019-05-29T17:44:29.611Z,101813.64
2019-05-29T17:46:59.741Z,101809.46
2019-05-29T17:49:34.456Z,101813.80
2019-05-29T17:52:01.711Z,101809.73
2019-05-29T17:54:31.806Z,101811.36
2019-05-29T17:57:02.078Z,101810.19
2019-05-29T17:59:32.185Z,101808.30
2019-05-29T18:02:02.531Z,101807.73
2019-05-29T18:04:32.746Z,101809.30
2019-05-29T18:07:02.896Z,101808.34
2019-05-29T18:09:33.176Z,101803.81
2019-05-29T18:12:03.284Z,101807.13
2019-05-29T18:14:36.234Z,101803.34
2019-05-29T18:17:06.377Z,101799.59
2019-05-29T18:19:36.659Z,101804.48
2019-05-29T18:22:06.781Z,101804.42
2019-05-29T18:24:36.961Z,101803.70
2019-05-29T18:27:07.113Z,101803.70
2019-05-29T18:29:37.279Z,101805.52
2019-05-29T18:32:09.265Z,101801.45
2019-05-29T18:34:39.469Z,101800.11
2019-05-29T18:37:09.632Z,101801.30
2019-05-29T18:39:39.845Z,101799.80
2019-05-29T18:42:09.962Z,101809.66
2019-05-29T18:44:40.087Z,101811.45
2019-05-29T18:47:13.266Z,101814.21
2019-05-29T18:49:46.007Z,101816.10
2019-05-29T18:52:35.306Z,101818.05
2019-05-29T18:55:08.546Z,101816.09
2019-05-29T18:57:38.725Z,101824.88
2019-05-29T19:00:09.692Z,101818.09
2019-05-29T19:02:39.871Z,101810.81
2019-05-29T19:05:10.501Z,101815.80
2019-05-29T19:07:45.375Z,101815.92
2019-05-29T19:10:16.496Z,101818.69
2019-05-29T19:12:46.623Z,101815.27
2019-05-29T19:15:17.262Z,101810.09
2019-05-29T19:17:47.409Z,101821.87
2019-05-29T19:20:17.782Z,101813.61
2019-05-29T19:22:50.728Z,101814.97
2019-05-29T19:25:20.913Z,101820.06
2019-05-29T19:27:51.190Z,101813.78
2019-05-29T19:30:22.861Z,101821.43
2019-05-29T19:32:53.256Z,101824.70
2019-05-29T19:35:27.543Z,101826.63
2019-05-29T19:37:57.939Z,101826.73
2019-05-29T19:40:28.186Z,101831.18
2019-05-29T19:42:58.370Z,101830.84
2019-05-29T19:45:28.665Z,101827.05
2019-05-29T19:47:58.797Z,101831.23
2019-05-29T19:50:28.952Z,101829.67
2019-05-29T19:52:59.026Z,101831.96
2019-05-29T19:55:32.870Z,101834.64
2019-05-29T19:58:01.116Z,101835.11
2019-05-29T20:00:32.150Z,101835.17
2019-05-29T20:03:02.430Z,101832.18
2019-05-29T20:05:32.921Z,101833.56
2019-05-29T20:08:03.043Z,101842.80
2019-05-29T20:10:33.482Z,101839.31
2019-05-29T20:13:03.585Z,101840.69
2019-05-29T20:15:33.960Z,101844.25
2019-05-29T20:18:04.334Z,101848.24
2019-05-29T20:20:34.615Z,101857.06
2019-05-29T20:23:04.733Z,101845.70
2019-05-29T20:25:35.031Z,101845.70
2019-05-29T20:28:10.647Z,101850.09
2019-05-29T20:30:40.859Z,101843.53
2019-05-29T20:33:11.174Z,101848.38
2019-05-29T20:35:41.297Z,101854.51
2019-05-29T20:38:11.448Z,101852.75
2019-05-29T20:40:41.638Z,101855.41
2019-05-29T20:43:11.882Z,101849.70
2019-05-29T20:45:42.042Z,101853.66
2019-05-29T20:48:12.199Z,101853.22
2019-05-29T20:50:43.312Z,101847.97
2019-05-29T20:53:13.654Z,101847.08
2019-05-29T20:55:43.766Z,101845.34
2019-05-29T20:58:24.501Z,101846.64
2019-05-29T21:00:47.051Z,101845.79
2019-05-29T21:03:17.338Z,101848.41
2019-05-29T21:05:47.452Z,101848.42
2019-05-29T21:08:17.600Z,101843.16
2019-05-29T21:10:47.698Z,101849.27
2019-05-29T21:13:17.845Z,101847.06
2019-05-29T21:15:51.783Z,101849.26
2019-05-29T21:18:21.946Z,101843.97
2019-05-29T21:20:52.066Z,101838.71
2019-05-29T21:23:22.173Z,101846.56
2019-05-29T21:25:52.392Z,101840.43
2019-05-29T21:28:22.491Z,101837.36
2019-05-29T21:30:52.612Z,101845.22
2019-05-29T21:33:22.755Z,101846.11
2019-05-29T21:35:52.841Z,101843.93
2019-05-29T21:38:22.973Z,101846.11
2019-05-29T21:40:53.068Z,101845.24
2019-05-29T21:43:23.175Z,101841.28
2019-05-29T21:45:53.242Z,101845.64
2019-05-29T21:48:23.519Z,101844.33
2019-05-29T21:50:53.600Z,101843.47
2019-05-29T21:53:23.719Z,101836.03
2019-05-29T21:55:53.866Z,101842.12
2019-05-29T21:58:23.974Z,101840.36
2019-05-29T22:00:54.055Z,101834.22
2019-05-29T22:03:24.139Z,101835.52
2019-05-29T22:05:54.280Z,101837.24
2019-05-29T22:08:24.384Z,101831.98
2019-05-29T22:10:55.535Z,101837.66
2019-05-29T22:13:25.754Z,101839.86
2019-05-29T22:15:56.866Z,101841.62
2019-05-29T22:18:27.044Z,101840.32
2019-05-29T22:20:58.752Z,101842.50
2019-05-29T22:23:29.202Z,101839.42
2019-05-29T22:25:59.493Z,101838.13
2019-05-29T22:28:29.650Z,101839.47
2019-05-29T22:30:59.748Z,101830.27
2019-05-29T22:33:29.848Z,101828.55
2019-05-29T22:35:59.929Z,101829.83
2019-05-29T22:38:30.013Z,101826.30
2019-05-29T22:41:00.089Z,101829.37
2019-05-29T22:43:30.178Z,101825.88
2019-05-29T22:46:01.932Z,101828.50
2019-05-29T22:48:32.169Z,101814.05
2019-05-29T22:51:02.243Z,101813.61
2019-05-29T22:53:32.371Z,101812.30
2019-05-29T22:56:02.464Z,101810.53
2019-05-29T22:58:32.570Z,101813.17
2019-05-29T23:01:02.619Z,101816.67
2019-05-29T23:03:32.782Z,101813.64
2019-05-29T23:06:02.865Z,101812.38
2019-05-29T23:08:32.964Z,101813.30
2019-05-29T23:11:03.175Z,101805.43
2019-05-29T23:13:33.237Z,101805.47
2019-05-29T23:16:03.318Z,101802.83
2019-05-29T23:18:33.427Z,101808.08
2019-05-29T23:21:03.487Z,101805.89
2019-05-29T23:23:33.590Z,101796.69
2019-05-29T23:26:03.708Z,101789.67
2019-05-29T23:28:33.834Z,101789.24
2019-05-29T23:31:03.939Z,101786.14
2019-05-29T23:33:34.000Z,101783.55
2019-05-29T23:36:05.498Z,101787.05
2019-05-29T23:38:35.535Z,101783.95
2019-05-29T23:41:05.629Z,101782.66
2019-05-29T23:43:35.743Z,101782.67
2019-05-29T23:46:05.774Z,101779.16
2019-05-29T23:48:35.873Z,101784.85
2019-05-29T23:51:05.943Z,101782.64
2019-05-29T23:53:36.013Z,101779.14
2019-05-29T23:56:06.212Z,101780.45
2019-05-29T23:58:36.270Z,101789.24
